Amelia, Ohio
Current Conditions -  °F | °C
As of 11:01 AM on Thursday 27 Nov 2014 (Local Time) from KLUK Reporting Station
Scattered Clouds Scattered Clouds  
Wind Chill: 27°   Ceiling: Unl
Heat Index: 34°   Visibility: 10mi
Dew Point: 22°   Wind: 8mph
Humidity: 61%   Direction: 310°NW
Pressure: 30.3"   Gusts: NA
Location:  39.03°N, 84.22°W
Report Text: KLUK 271601Z 31007KT 10SM SCT027 01/M06 A3030 RMK AO2 T00111056
Loading
Personal Weather Stations






























Interactive Weather Map New forecast layout! Learn more

10-Day Weather Forecast

Advertisements
Track Severe Weather on mobile